createdAt,value
2023-03-12T00:03:42.000Z,983.61
2023-03-12T00:08:36.000Z,983.68
2023-03-12T00:13:30.000Z,983.61
2023-03-12T00:18:24.000Z,983.53
2023-03-12T00:23:18.000Z,983.56
2023-03-12T00:28:12.000Z,983.52
2023-03-12T00:33:06.000Z,983.43
2023-03-12T00:38:01.000Z,983.46
2023-03-12T00:42:54.000Z,983.46
2023-03-12T00:47:47.000Z,983.40
2023-03-12T00:52:42.000Z,983.40
2023-03-12T00:57:36.000Z,983.40
2023-03-12T01:02:30.000Z,983.42
2023-03-12T01:07:25.000Z,983.41
2023-03-12T01:12:16.000Z,983.35
2023-03-12T01:17:12.000Z,983.36
2023-03-12T01:22:03.000Z,983.30
2023-03-12T01:26:58.000Z,983.26
2023-03-12T01:31:52.000Z,983.31
2023-03-12T01:36:44.000Z,983.15
2023-03-12T01:41:36.000Z,983.25
2023-03-12T01:46:30.000Z,983.31
2023-03-12T01:51:25.000Z,983.19
2023-03-12T01:56:18.000Z,983.21
2023-03-12T02:01:12.000Z,983.21
2023-03-12T02:06:06.000Z,983.17
2023-03-12T02:11:00.000Z,982.97
2023-03-12T02:15:54.000Z,982.98
2023-03-12T02:20:47.000Z,982.85
2023-03-12T02:25:40.000Z,982.88
2023-03-12T02:30:34.000Z,982.78
2023-03-12T02:35:28.000Z,982.72
2023-03-12T02:40:22.000Z,982.78
2023-03-12T02:45:15.000Z,982.69
2023-03-12T02:50:10.000Z,982.66
2023-03-12T02:55:04.000Z,982.60
2023-03-12T02:59:58.000Z,982.56
2023-03-12T03:04:52.000Z,982.41
2023-03-12T03:09:47.000Z,982.15
2023-03-12T03:14:41.000Z,982.35
2023-03-12T03:19:35.000Z,982.45
2023-03-12T03:24:29.000Z,982.39
2023-03-12T03:29:24.000Z,982.39
2023-03-12T03:34:17.000Z,982.41
2023-03-12T03:39:11.000Z,982.41
2023-03-12T03:44:05.000Z,982.28
2023-03-12T03:48:59.000Z,982.25
2023-03-12T03:53:54.000Z,982.33
2023-03-12T03:58:48.000Z,982.45
2023-03-12T04:03:41.000Z,982.47
2023-03-12T04:08:36.000Z,982.68
2023-03-12T04:13:29.000Z,982.56
2023-03-12T04:18:24.000Z,982.41
2023-03-12T04:23:15.000Z,982.45
2023-03-12T04:28:09.000Z,982.41
2023-03-12T04:33:03.000Z,982.34
2023-03-12T04:37:57.000Z,982.39
2023-03-12T04:42:51.000Z,982.37
2023-03-12T04:47:48.000Z,982.23
2023-03-12T04:52:39.000Z,982.11
2023-03-12T04:57:34.000Z,982.10
2023-03-12T05:02:28.000Z,982.04
2023-03-12T05:07:22.000Z,981.99
2023-03-12T05:12:16.000Z,981.97
2023-03-12T05:17:09.000Z,982.00
2023-03-12T05:22:03.000Z,982.04
2023-03-12T05:26:58.000Z,981.99
2023-03-12T05:31:52.000Z,981.86
2023-03-12T05:36:46.000Z,981.80
2023-03-12T05:41:39.000Z,981.82
2023-03-12T05:46:33.000Z,981.89
2023-03-12T05:51:27.000Z,981.83
2023-03-12T05:56:21.000Z,981.72
2023-03-12T06:01:14.000Z,981.65
2023-03-12T06:06:08.000Z,981.70
2023-03-12T06:11:02.000Z,981.71
2023-03-12T06:15:56.000Z,981.69
2023-03-12T06:20:51.000Z,981.60
2023-03-12T06:25:45.000Z,981.55
2023-03-12T06:30:39.000Z,981.49
2023-03-12T06:35:31.000Z,981.54
2023-03-12T06:40:23.000Z,981.52
2023-03-12T06:45:18.000Z,981.59
2023-03-12T06:50:12.000Z,981.55
2023-03-12T06:55:07.000Z,981.44
2023-03-12T07:00:01.000Z,981.32
2023-03-12T07:04:56.000Z,981.39
2023-03-12T07:09:50.000Z,981.57
2023-03-12T07:14:44.000Z,981.47
2023-03-12T07:19:38.000Z,981.67
2023-03-12T07:24:32.000Z,981.74
2023-03-12T07:29:26.000Z,981.75
2023-03-12T07:34:20.000Z,981.80
2023-03-12T07:39:15.000Z,981.77
2023-03-12T07:44:09.000Z,981.70
2023-03-12T07:49:04.000Z,981.76
2023-03-12T07:53:59.000Z,981.70
2023-03-12T07:58:53.000Z,981.73
2023-03-12T08:03:48.000Z,981.68
2023-03-12T08:08:41.000Z,981.84
2023-03-12T08:13:35.000Z,981.77
2023-03-12T08:18:29.000Z,981.89
2023-03-12T08:23:23.000Z,981.81
2023-03-12T08:28:17.000Z,981.84
2023-03-12T08:33:12.000Z,981.81
2023-03-12T08:38:06.000Z,981.67
2023-03-12T08:43:00.000Z,981.64
2023-03-12T08:47:54.000Z,981.63
2023-03-12T08:52:49.000Z,981.66
2023-03-12T08:57:43.000Z,981.66
2023-03-12T09:02:37.000Z,981.78
2023-03-12T09:07:32.000Z,981.77
2023-03-12T09:12:25.000Z,981.71
2023-03-12T09:17:19.000Z,981.69
2023-03-12T09:22:14.000Z,981.74
2023-03-12T09:27:08.000Z,981.76
2023-03-12T09:32:02.000Z,981.72
2023-03-12T09:36:56.000Z,981.72
2023-03-12T09:41:52.000Z,981.64
2023-03-12T09:46:42.000Z,981.59
2023-03-12T09:51:36.000Z,981.77
2023-03-12T09:56:30.000Z,981.84
2023-03-12T10:01:24.000Z,981.82
2023-03-12T10:06:18.000Z,981.80
2023-03-12T10:11:13.000Z,981.79
2023-03-12T10:16:07.000Z,981.72
2023-03-12T10:21:03.000Z,981.71
2023-03-12T10:25:56.000Z,981.67
2023-03-12T10:30:52.000Z,981.58
2023-03-12T10:35:44.000Z,981.68
2023-03-12T10:40:36.000Z,981.61
2023-03-12T10:45:31.000Z,981.67
2023-03-12T10:50:27.000Z,981.61
2023-03-12T10:55:21.000Z,981.79
2023-03-12T11:00:16.000Z,981.74
2023-03-12T11:05:10.000Z,981.67
2023-03-12T11:10:03.000Z,981.66
2023-03-12T11:14:57.000Z,981.58
2023-03-12T11:19:52.000Z,981.61
2023-03-12T11:24:48.000Z,981.71
2023-03-12T11:29:42.000Z,981.66
2023-03-12T11:34:37.000Z,981.57
2023-03-12T11:39:32.000Z,981.57
2023-03-12T11:44:27.000Z,981.46
2023-03-12T11:49:18.000Z,981.38
2023-03-12T11:54:13.000Z,981.27
2023-03-12T11:59:05.000Z,981.13
2023-03-12T12:04:01.000Z,981.19
2023-03-12T12:08:54.000Z,981.27
2023-03-12T12:13:47.000Z,981.12
2023-03-12T12:18:40.000Z,981.26
2023-03-12T12:23:34.000Z,981.21
2023-03-12T12:28:28.000Z,981.25
2023-03-12T12:33:20.000Z,981.14
2023-03-12T12:38:11.000Z,981.24
2023-03-12T12:43:06.000Z,981.09
2023-03-12T12:48:00.000Z,981.10
2023-03-12T12:52:54.000Z,981.10
2023-03-12T12:57:47.000Z,981.11
2023-03-12T13:02:43.000Z,980.83
2023-03-12T13:07:36.000Z,980.89
2023-03-12T13:12:31.000Z,980.81
2023-03-12T13:17:26.000Z,980.78
2023-03-12T13:22:16.000Z,980.91
2023-03-12T13:27:10.000Z,980.90
2023-03-12T13:32:04.000Z,980.92
2023-03-12T13:36:58.000Z,980.94
2023-03-12T13:41:52.000Z,980.93
2023-03-12T13:46:46.000Z,980.84
2023-03-12T13:51:41.000Z,980.82
2023-03-12T13:56:35.000Z,980.86
2023-03-12T14:01:29.000Z,980.65
2023-03-12T14:06:24.000Z,980.74
2023-03-12T14:11:18.000Z,980.79
2023-03-12T14:16:13.000Z,980.87
2023-03-12T14:21:05.000Z,980.79
2023-03-12T14:26:00.000Z,980.97
2023-03-12T14:30:54.000Z,980.97
2023-03-12T14:35:48.000Z,980.75
2023-03-12T14:40:43.000Z,980.87
2023-03-12T14:45:35.000Z,980.71
2023-03-12T14:50:29.000Z,980.85
2023-03-12T14:55:24.000Z,980.78
2023-03-12T15:00:18.000Z,980.72
2023-03-12T15:05:12.000Z,980.72
2023-03-12T15:10:07.000Z,980.86
2023-03-12T15:15:01.000Z,980.86
2023-03-12T15:19:56.000Z,980.81
2023-03-12T15:24:50.000Z,980.83
2023-03-12T15:29:45.000Z,980.74
2023-03-12T15:34:39.000Z,980.72
2023-03-12T15:39:33.000Z,980.82
2023-03-12T15:44:28.000Z,980.87
2023-03-12T15:49:22.000Z,980.91
2023-03-12T15:54:17.000Z,980.88
2023-03-12T15:59:11.000Z,980.82
2023-03-12T16:04:06.000Z,980.89
2023-03-12T16:09:00.000Z,980.94
2023-03-12T16:13:54.000Z,980.98
2023-03-12T16:18:49.000Z,981.03
2023-03-12T16:23:44.000Z,981.07
2023-03-12T16:28:38.000Z,981.14
2023-03-12T16:33:33.000Z,981.13
2023-03-12T16:38:27.000Z,981.04
2023-03-12T16:43:21.000Z,981.08
2023-03-12T16:48:15.000Z,981.15
2023-03-12T16:53:09.000Z,981.08
2023-03-12T16:58:04.000Z,981.16
2023-03-12T17:02:58.000Z,981.23
2023-03-12T17:07:52.000Z,981.23
2023-03-12T17:12:46.000Z,981.23
2023-03-12T17:17:40.000Z,981.26
2023-03-12T17:22:35.000Z,981.27
2023-03-12T17:27:29.000Z,981.21
2023-03-12T17:32:23.000Z,981.20
2023-03-12T17:37:17.000Z,981.34
2023-03-12T17:42:12.000Z,981.36
2023-03-12T17:47:06.000Z,981.45
2023-03-12T17:52:01.000Z,981.60
2023-03-12T17:56:55.000Z,981.45
2023-03-12T18:01:50.000Z,981.57
2023-03-12T18:06:45.000Z,981.55
2023-03-12T18:11:39.000Z,981.53
2023-03-12T18:16:33.000Z,981.56
2023-03-12T18:21:27.000Z,981.57
2023-03-12T18:26:22.000Z,981.76
2023-03-12T18:31:16.000Z,981.73
2023-03-12T18:36:09.000Z,981.80
2023-03-12T18:41:04.000Z,981.93
2023-03-12T18:45:58.000Z,981.93
2023-03-12T18:50:52.000Z,981.90
2023-03-12T18:55:46.000Z,981.82
2023-03-12T19:00:41.000Z,982.02
2023-03-12T19:05:35.000Z,982.06
2023-03-12T19:10:29.000Z,982.06
2023-03-12T19:15:24.000Z,982.03
2023-03-12T19:20:17.000Z,982.10
2023-03-12T19:25:11.000Z,981.97
2023-03-12T19:30:06.000Z,982.01
2023-03-12T19:35:00.000Z,981.98
2023-03-12T19:39:54.000Z,981.98
2023-03-12T19:44:49.000Z,981.98
2023-03-12T19:49:43.000Z,981.85
2023-03-12T19:54:36.000Z,981.80
2023-03-12T19:59:30.000Z,981.70
2023-03-12T20:04:24.000Z,981.72
2023-03-12T20:09:19.000Z,981.71
2023-03-12T20:14:12.000Z,981.68
2023-03-12T20:19:07.000Z,981.77
2023-03-12T20:24:01.000Z,981.58
2023-03-12T20:28:55.000Z,981.55
2023-03-12T20:33:49.000Z,981.54
2023-03-12T20:38:44.000Z,981.50
2023-03-12T20:43:38.000Z,981.46
2023-03-12T20:48:32.000Z,981.36
2023-03-12T20:53:25.000Z,981.30
2023-03-12T20:58:19.000Z,981.19
2023-03-12T21:03:13.000Z,981.12
2023-03-12T21:08:05.000Z,981.00
2023-03-12T21:12:58.000Z,981.06
2023-03-12T21:17:53.000Z,980.86
2023-03-12T21:22:47.000Z,980.96
2023-03-12T21:27:40.000Z,980.98
2023-03-12T21:32:34.000Z,980.91
2023-03-12T21:37:29.000Z,980.96
2023-03-12T21:42:22.000Z,980.84
2023-03-12T21:47:16.000Z,980.81
2023-03-12T21:52:10.000Z,980.70
2023-03-12T21:57:05.000Z,980.58
2023-03-12T22:01:59.000Z,980.64
2023-03-12T22:06:57.000Z,980.67
2023-03-12T22:11:47.000Z,980.48
2023-03-12T22:16:41.000Z,980.31
2023-03-12T22:21:35.000Z,980.33
2023-03-12T22:26:29.000Z,980.33
2023-03-12T22:31:23.000Z,980.20
2023-03-12T22:36:16.000Z,980.16
2023-03-12T22:41:10.000Z,980.02
2023-03-12T22:46:04.000Z,980.09
2023-03-12T22:50:58.000Z,980.10
2023-03-12T22:55:53.000Z,980.02
2023-03-12T23:00:47.000Z,980.09
2023-03-12T23:05:42.000Z,979.99
2023-03-12T23:10:37.000Z,979.95
2023-03-12T23:15:31.000Z,979.81
2023-03-12T23:20:25.000Z,979.76
2023-03-12T23:25:19.000Z,979.83
2023-03-12T23:30:13.000Z,979.75
2023-03-12T23:35:08.000Z,979.67
2023-03-12T23:40:02.000Z,979.62
2023-03-12T23:44:57.000Z,979.59
2023-03-12T23:49:52.000Z,979.44
2023-03-12T23:54:46.000Z,979.38
2023-03-12T23:59:39.000Z,979.37
